sensor_id;sensor_type;location;lat;lon;timestamp;P1;durP1;ratioP1;P2;durP2;ratioP2
18360;SDS011;9308;48.550;9.108;2023-04-24T00:02:23;1.57;;;1.30;;
18360;SDS011;9308;48.550;9.108;2023-04-24T00:04:49;1.60;;;1.50;;
18360;SDS011;9308;48.550;9.108;2023-04-24T00:07:14;1.43;;;1.33;;
18360;SDS011;9308;48.550;9.108;2023-04-24T00:09:41;2.10;;;1.40;;
18360;SDS011;9308;48.550;9.108;2023-04-24T00:12:10;1.43;;;1.20;;
18360;SDS011;9308;48.550;9.108;2023-04-24T00:14:36;1.43;;;1.33;;
18360;SDS011;9308;48.550;9.108;2023-04-24T00:17:01;1.60;;;1.20;;
18360;SDS011;9308;48.550;9.108;2023-04-24T00:19:27;1.30;;;1.20;;
18360;SDS011;9308;48.550;9.108;2023-04-24T00:21:54;1.57;;;1.07;;
18360;SDS011;9308;48.550;9.108;2023-04-24T00:24:20;2.90;;;1.30;;
18360;SDS011;9308;48.550;9.108;2023-04-24T00:26:46;2.63;;;1.30;;
18360;SDS011;9308;48.550;9.108;2023-04-24T00:29:11;1.87;;;1.70;;
18360;SDS011;9308;48.550;9.108;2023-04-24T00:31:37;1.70;;;1.47;;
18360;SDS011;9308;48.550;9.108;2023-04-24T00:34:03;4.00;;;1.23;;
18360;SDS011;9308;48.550;9.108;2023-04-24T00:36:30;2.60;;;1.50;;
18360;SDS011;9308;48.550;9.108;2023-04-24T00:38:56;1.73;;;1.20;;
18360;SDS011;9308;48.550;9.108;2023-04-24T00:41:22;1.57;;;1.40;;
18360;SDS011;9308;48.550;9.108;2023-04-24T00:43:48;1.33;;;1.23;;
18360;SDS011;9308;48.550;9.108;2023-04-24T00:46:14;1.30;;;1.20;;
18360;SDS011;9308;48.550;9.108;2023-04-24T00:48:39;1.90;;;1.40;;
18360;SDS011;9308;48.550;9.108;2023-04-24T00:51:05;1.57;;;1.37;;
18360;SDS011;9308;48.550;9.108;2023-04-24T00:53:31;1.60;;;1.50;;
18360;SDS011;9308;48.550;9.108;2023-04-24T00:55:56;1.50;;;1.40;;
18360;SDS011;9308;48.550;9.108;2023-04-24T00:58:22;2.43;;;1.30;;
18360;SDS011;9308;48.550;9.108;2023-04-24T01:00:48;2.00;;;1.50;;
18360;SDS011;9308;48.550;9.108;2023-04-24T01:03:15;1.50;;;1.40;;
18360;SDS011;9308;48.550;9.108;2023-04-24T01:05:41;1.30;;;1.20;;
18360;SDS011;9308;48.550;9.108;2023-04-24T01:08:07;1.70;;;1.00;;
18360;SDS011;9308;48.550;9.108;2023-04-24T01:10:33;1.53;;;1.33;;
18360;SDS011;9308;48.550;9.108;2023-04-24T01:12:59;1.40;;;1.30;;
18360;SDS011;9308;48.550;9.108;2023-04-24T01:15:25;1.70;;;1.60;;
18360;SDS011;9308;48.550;9.108;2023-04-24T01:17:51;1.67;;;1.40;;
18360;SDS011;9308;48.550;9.108;2023-04-24T01:20:16;1.40;;;1.30;;
18360;SDS011;9308;48.550;9.108;2023-04-24T01:22:42;1.50;;;1.40;;
18360;SDS011;9308;48.550;9.108;2023-04-24T01:25:08;1.53;;;1.43;;
18360;SDS011;9308;48.550;9.108;2023-04-24T01:27:34;1.47;;;1.37;;
18360;SDS011;9308;48.550;9.108;2023-04-24T01:29:59;1.40;;;1.30;;
18360;SDS011;9308;48.550;9.108;2023-04-24T01:32:25;2.23;;;1.73;;
18360;SDS011;9308;48.550;9.108;2023-04-24T01:34:51;1.70;;;1.60;;
18360;SDS011;9308;48.550;9.108;2023-04-24T01:37:16;3.60;;;1.97;;
18360;SDS011;9308;48.550;9.108;2023-04-24T01:39:43;1.60;;;1.50;;
18360;SDS011;9308;48.550;9.108;2023-04-24T01:42:08;2.57;;;1.40;;
18360;SDS011;9308;48.550;9.108;2023-04-24T01:44:34;2.50;;;1.77;;
18360;SDS011;9308;48.550;9.108;2023-04-24T01:47:00;1.60;;;1.50;;
18360;SDS011;9308;48.550;9.108;2023-04-24T01:49:26;1.60;;;1.50;;
18360;SDS011;9308;48.550;9.108;2023-04-24T01:51:51;1.87;;;1.60;;
18360;SDS011;9308;48.550;9.108;2023-04-24T01:54:17;1.53;;;1.43;;
18360;SDS011;9308;48.550;9.108;2023-04-24T01:56:43;1.50;;;1.40;;
18360;SDS011;9308;48.550;9.108;2023-04-24T01:59:10;2.27;;;1.77;;
18360;SDS011;9308;48.550;9.108;2023-04-24T02:01:36;1.40;;;1.30;;
18360;SDS011;9308;48.550;9.108;2023-04-24T02:04:06;1.47;;;1.43;;
18360;SDS011;9308;48.550;9.108;2023-04-24T02:06:32;1.33;;;1.23;;
18360;SDS011;9308;48.550;9.108;2023-04-24T02:08:58;1.87;;;1.37;;
18360;SDS011;9308;48.550;9.108;2023-04-24T02:11:24;1.80;;;1.30;;
18360;SDS011;9308;48.550;9.108;2023-04-24T02:13:50;2.50;;;1.50;;
18360;SDS011;9308;48.550;9.108;2023-04-24T02:16:16;1.60;;;1.50;;
18360;SDS011;9308;48.550;9.108;2023-04-24T02:18:42;1.50;;;1.40;;
18360;SDS011;9308;48.550;9.108;2023-04-24T02:21:08;1.33;;;1.20;;
18360;SDS011;9308;48.550;9.108;2023-04-24T02:23:34;1.43;;;1.33;;
18360;SDS011;9308;48.550;9.108;2023-04-24T02:25:59;1.60;;;1.50;;
18360;SDS011;9308;48.550;9.108;2023-04-24T02:28:25;1.60;;;1.50;;
18360;SDS011;9308;48.550;9.108;2023-04-24T02:30:50;1.50;;;1.40;;
18360;SDS011;9308;48.550;9.108;2023-04-24T02:33:16;1.73;;;1.63;;
18360;SDS011;9308;48.550;9.108;2023-04-24T02:35:41;1.80;;;1.43;;
18360;SDS011;9308;48.550;9.108;2023-04-24T02:38:07;1.60;;;1.50;;
18360;SDS011;9308;48.550;9.108;2023-04-24T02:40:33;1.97;;;1.60;;
18360;SDS011;9308;48.550;9.108;2023-04-24T02:42:59;2.00;;;1.70;;
18360;SDS011;9308;48.550;9.108;2023-04-24T02:45:25;2.13;;;1.73;;
18360;SDS011;9308;48.550;9.108;2023-04-24T02:47:50;1.87;;;1.50;;
18360;SDS011;9308;48.550;9.108;2023-04-24T02:50:16;2.53;;;1.70;;
18360;SDS011;9308;48.550;9.108;2023-04-24T02:52:41;1.70;;;1.60;;
18360;SDS011;9308;48.550;9.108;2023-04-24T02:55:06;3.63;;;2.10;;
18360;SDS011;9308;48.550;9.108;2023-04-24T02:57:33;2.40;;;1.20;;
18360;SDS011;9308;48.550;9.108;2023-04-24T02:59:58;1.50;;;1.40;;
18360;SDS011;9308;48.550;9.108;2023-04-24T03:02:24;2.80;;;1.73;;
18360;SDS011;9308;48.550;9.108;2023-04-24T03:04:50;1.77;;;1.47;;
18360;SDS011;9308;48.550;9.108;2023-04-24T03:07:15;2.20;;;1.60;;
18360;SDS011;9308;48.550;9.108;2023-04-24T03:09:41;1.53;;;1.30;;
18360;SDS011;9308;48.550;9.108;2023-04-24T03:12:06;1.50;;;1.30;;
18360;SDS011;9308;48.550;9.108;2023-04-24T03:14:32;1.53;;;1.43;;
18360;SDS011;9308;48.550;9.108;2023-04-24T03:16:57;1.50;;;1.40;;
18360;SDS011;9308;48.550;9.108;2023-04-24T03:19:23;3.57;;;1.60;;
18360;SDS011;9308;48.550;9.108;2023-04-24T03:21:48;2.33;;;1.47;;
18360;SDS011;9308;48.550;9.108;2023-04-24T03:24:14;2.90;;;1.90;;
18360;SDS011;9308;48.550;9.108;2023-04-24T03:26:39;2.10;;;1.83;;
18360;SDS011;9308;48.550;9.108;2023-04-24T03:29:05;2.10;;;2.00;;
18360;SDS011;9308;48.550;9.108;2023-04-24T03:31:30;2.00;;;1.90;;
18360;SDS011;9308;48.550;9.108;2023-04-24T03:33:56;2.50;;;1.90;;
18360;SDS011;9308;48.550;9.108;2023-04-24T03:36:21;2.80;;;2.00;;
18360;SDS011;9308;48.550;9.108;2023-04-24T03:38:46;2.70;;;1.70;;
18360;SDS011;9308;48.550;9.108;2023-04-24T03:41:12;1.80;;;1.70;;
18360;SDS011;9308;48.550;9.108;2023-04-24T03:43:37;2.17;;;1.90;;
18360;SDS011;9308;48.550;9.108;2023-04-24T03:46:03;2.10;;;1.60;;
18360;SDS011;9308;48.550;9.108;2023-04-24T03:48:29;1.70;;;1.60;;
18360;SDS011;9308;48.550;9.108;2023-04-24T03:50:55;1.73;;;1.63;;
18360;SDS011;9308;48.550;9.108;2023-04-24T03:53:20;1.67;;;1.57;;
18360;SDS011;9308;48.550;9.108;2023-04-24T03:55:46;2.33;;;1.50;;
18360;SDS011;9308;48.550;9.108;2023-04-24T03:58:11;1.60;;;1.50;;
18360;SDS011;9308;48.550;9.108;2023-04-24T04:00:38;1.83;;;1.73;;
18360;SDS011;9308;48.550;9.108;2023-04-24T04:03:05;1.90;;;1.70;;
18360;SDS011;9308;48.550;9.108;2023-04-24T04:05:31;1.60;;;1.50;;
18360;SDS011;9308;48.550;9.108;2023-04-24T04:07:56;3.83;;;1.90;;
18360;SDS011;9308;48.550;9.108;2023-04-24T04:10:22;2.20;;;2.00;;
18360;SDS011;9308;48.550;9.108;2023-04-24T04:12:47;2.30;;;1.70;;
18360;SDS011;9308;48.550;9.108;2023-04-24T04:15:13;2.33;;;2.13;;
18360;SDS011;9308;48.550;9.108;2023-04-24T04:17:38;1.73;;;1.63;;
18360;SDS011;9308;48.550;9.108;2023-04-24T04:20:04;2.03;;;1.93;;
18360;SDS011;9308;48.550;9.108;2023-04-24T04:22:34;1.50;;;1.40;;
18360;SDS011;9308;48.550;9.108;2023-04-24T04:24:59;2.53;;;1.70;;
18360;SDS011;9308;48.550;9.108;2023-04-24T04:27:25;1.67;;;1.57;;
18360;SDS011;9308;48.550;9.108;2023-04-24T04:29:51;1.40;;;1.30;;
18360;SDS011;9308;48.550;9.108;2023-04-24T04:32:17;2.03;;;1.70;;
18360;SDS011;9308;48.550;9.108;2023-04-24T04:34:43;1.63;;;1.53;;
18360;SDS011;9308;48.550;9.108;2023-04-24T04:37:10;1.57;;;1.47;;
18360;SDS011;9308;48.550;9.108;2023-04-24T04:39:37;1.90;;;1.33;;
18360;SDS011;9308;48.550;9.108;2023-04-24T04:42:03;1.90;;;1.80;;
18360;SDS011;9308;48.550;9.108;2023-04-24T04:44:28;1.60;;;1.50;;
18360;SDS011;9308;48.550;9.108;2023-04-24T04:46:55;1.33;;;1.23;;
18360;SDS011;9308;48.550;9.108;2023-04-24T04:49:21;2.23;;;2.13;;
18360;SDS011;9308;48.550;9.108;2023-04-24T04:51:48;1.70;;;1.60;;
18360;SDS011;9308;48.550;9.108;2023-04-24T04:54:16;2.27;;;1.57;;
18360;SDS011;9308;48.550;9.108;2023-04-24T04:56:41;1.50;;;1.30;;
18360;SDS011;9308;48.550;9.108;2023-04-24T04:59:07;1.77;;;1.40;;
18360;SDS011;9308;48.550;9.108;2023-04-24T05:01:32;1.87;;;1.70;;
18360;SDS011;9308;48.550;9.108;2023-04-24T05:03:58;1.80;;;1.40;;
18360;SDS011;9308;48.550;9.108;2023-04-24T05:06:23;1.83;;;1.63;;
18360;SDS011;9308;48.550;9.108;2023-04-24T05:08:49;2.10;;;1.40;;
18360;SDS011;9308;48.550;9.108;2023-04-24T05:11:15;3.40;;;1.93;;
18360;SDS011;9308;48.550;9.108;2023-04-24T05:13:40;1.67;;;1.57;;
18360;SDS011;9308;48.550;9.108;2023-04-24T05:16:06;1.93;;;1.83;;
18360;SDS011;9308;48.550;9.108;2023-04-24T05:18:31;2.40;;;2.17;;
18360;SDS011;9308;48.550;9.108;2023-04-24T05:20:57;1.83;;;1.73;;
18360;SDS011;9308;48.550;9.108;2023-04-24T05:23:22;3.00;;;2.50;;
18360;SDS011;9308;48.550;9.108;2023-04-24T05:25:48;2.40;;;2.27;;
18360;SDS011;9308;48.550;9.108;2023-04-24T05:28:13;2.00;;;1.90;;
18360;SDS011;9308;48.550;9.108;2023-04-24T05:30:38;2.47;;;2.27;;
18360;SDS011;9308;48.550;9.108;2023-04-24T05:33:04;2.10;;;2.00;;
18360;SDS011;9308;48.550;9.108;2023-04-24T05:35:30;2.40;;;2.20;;
18360;SDS011;9308;48.550;9.108;2023-04-24T05:37:55;2.17;;;1.97;;
18360;SDS011;9308;48.550;9.108;2023-04-24T05:40:20;2.60;;;2.40;;
18360;SDS011;9308;48.550;9.108;2023-04-24T05:42:46;2.77;;;2.47;;
18360;SDS011;9308;48.550;9.108;2023-04-24T05:45:11;5.67;;;2.80;;
18360;SDS011;9308;48.550;9.108;2023-04-24T05:47:41;3.33;;;2.13;;
18360;SDS011;9308;48.550;9.108;2023-04-24T05:50:09;3.10;;;2.70;;
18360;SDS011;9308;48.550;9.108;2023-04-24T05:52:35;2.70;;;2.50;;
18360;SDS011;9308;48.550;9.108;2023-04-24T05:55:00;3.10;;;2.90;;
18360;SDS011;9308;48.550;9.108;2023-04-24T05:57:26;3.20;;;2.90;;
18360;SDS011;9308;48.550;9.108;2023-04-24T05:59:51;2.80;;;2.60;;
18360;SDS011;9308;48.550;9.108;2023-04-24T06:02:16;6.03;;;3.10;;
18360;SDS011;9308;48.550;9.108;2023-04-24T06:04:42;3.80;;;3.37;;
18360;SDS011;9308;48.550;9.108;2023-04-24T06:07:10;2.80;;;2.60;;
18360;SDS011;9308;48.550;9.108;2023-04-24T06:09:36;3.50;;;3.30;;
18360;SDS011;9308;48.550;9.108;2023-04-24T06:12:01;3.70;;;2.80;;
18360;SDS011;9308;48.550;9.108;2023-04-24T06:14:27;3.17;;;2.97;;
18360;SDS011;9308;48.550;9.108;2023-04-24T06:16:53;3.20;;;3.00;;
18360;SDS011;9308;48.550;9.108;2023-04-24T06:19:18;3.10;;;2.90;;
18360;SDS011;9308;48.550;9.108;2023-04-24T06:21:44;3.03;;;2.83;;
18360;SDS011;9308;48.550;9.108;2023-04-24T06:24:09;3.20;;;3.00;;
18360;SDS011;9308;48.550;9.108;2023-04-24T06:26:35;3.30;;;3.00;;
18360;SDS011;9308;48.550;9.108;2023-04-24T06:29:01;2.97;;;2.87;;
18360;SDS011;9308;48.550;9.108;2023-04-24T06:31:26;3.13;;;2.93;;
18360;SDS011;9308;48.550;9.108;2023-04-24T06:33:52;3.00;;;2.80;;
18360;SDS011;9308;48.550;9.108;2023-04-24T06:36:17;3.53;;;3.00;;
18360;SDS011;9308;48.550;9.108;2023-04-24T06:38:43;2.70;;;2.50;;
18360;SDS011;9308;48.550;9.108;2023-04-24T06:41:09;2.63;;;2.40;;
18360;SDS011;9308;48.550;9.108;2023-04-24T06:43:35;4.23;;;3.80;;
18360;SDS011;9308;48.550;9.108;2023-04-24T06:46:00;3.07;;;2.77;;
18360;SDS011;9308;48.550;9.108;2023-04-24T06:48:28;2.83;;;2.63;;
18360;SDS011;9308;48.550;9.108;2023-04-24T06:50:54;2.80;;;2.60;;
18360;SDS011;9308;48.550;9.108;2023-04-24T06:53:19;3.60;;;2.90;;
18360;SDS011;9308;48.550;9.108;2023-04-24T06:55:45;4.40;;;2.93;;
18360;SDS011;9308;48.550;9.108;2023-04-24T06:58:11;3.23;;;2.93;;
18360;SDS011;9308;48.550;9.108;2023-04-24T07:00:37;2.80;;;2.60;;
18360;SDS011;9308;48.550;9.108;2023-04-24T07:03:03;2.40;;;2.20;;
18360;SDS011;9308;48.550;9.108;2023-04-24T07:05:30;2.40;;;2.20;;
18360;SDS011;9308;48.550;9.108;2023-04-24T07:07:56;3.37;;;2.97;;
18360;SDS011;9308;48.550;9.108;2023-04-24T07:10:23;3.50;;;3.20;;
18360;SDS011;9308;48.550;9.108;2023-04-24T07:12:49;3.80;;;3.50;;
18360;SDS011;9308;48.550;9.108;2023-04-24T07:15:15;3.40;;;3.10;;
18360;SDS011;9308;48.550;9.108;2023-04-24T07:17:41;2.77;;;2.57;;
18360;SDS011;9308;48.550;9.108;2023-04-24T07:20:09;3.10;;;2.90;;
18360;SDS011;9308;48.550;9.108;2023-04-24T07:22:39;3.80;;;3.50;;
18360;SDS011;9308;48.550;9.108;2023-04-24T07:25:05;2.93;;;2.73;;
18360;SDS011;9308;48.550;9.108;2023-04-24T07:27:30;2.20;;;2.10;;
18360;SDS011;9308;48.550;9.108;2023-04-24T07:29:56;3.57;;;2.50;;
18360;SDS011;9308;48.550;9.108;2023-04-24T07:32:21;3.10;;;2.10;;
18360;SDS011;9308;48.550;9.108;2023-04-24T07:34:46;2.27;;;2.13;;
18360;SDS011;9308;48.550;9.108;2023-04-24T07:37:12;1.97;;;1.87;;
18360;SDS011;9308;48.550;9.108;2023-04-24T07:39:37;2.40;;;2.20;;
18360;SDS011;9308;48.550;9.108;2023-04-24T07:42:03;2.80;;;2.60;;
18360;SDS011;9308;48.550;9.108;2023-04-24T07:44:28;2.43;;;2.33;;
18360;SDS011;9308;48.550;9.108;2023-04-24T07:46:54;3.40;;;2.60;;
18360;SDS011;9308;48.550;9.108;2023-04-24T07:49:20;2.10;;;2.00;;
18360;SDS011;9308;48.550;9.108;2023-04-24T07:51:46;2.23;;;2.13;;
18360;SDS011;9308;48.550;9.108;2023-04-24T07:54:11;1.87;;;1.77;;
18360;SDS011;9308;48.550;9.108;2023-04-24T07:56:37;2.00;;;1.90;;
18360;SDS011;9308;48.550;9.108;2023-04-24T07:59:06;2.37;;;1.97;;
18360;SDS011;9308;48.550;9.108;2023-04-24T08:01:32;2.40;;;2.20;;
18360;SDS011;9308;48.550;9.108;2023-04-24T08:03:57;3.03;;;2.37;;
18360;SDS011;9308;48.550;9.108;2023-04-24T08:06:22;2.30;;;2.10;;
18360;SDS011;9308;48.550;9.108;2023-04-24T08:08:49;2.10;;;2.00;;
18360;SDS011;9308;48.550;9.108;2023-04-24T08:11:14;3.20;;;2.10;;
18360;SDS011;9308;48.550;9.108;2023-04-24T08:13:40;2.57;;;2.40;;
18360;SDS011;9308;48.550;9.108;2023-04-24T08:16:05;3.93;;;1.90;;
18360;SDS011;9308;48.550;9.108;2023-04-24T08:18:31;2.30;;;2.20;;
18360;SDS011;9308;48.550;9.108;2023-04-24T08:20:56;2.30;;;2.10;;
18360;SDS011;9308;48.550;9.108;2023-04-24T08:23:26;2.60;;;2.07;;
18360;SDS011;9308;48.550;9.108;2023-04-24T08:25:52;2.77;;;2.13;;
18360;SDS011;9308;48.550;9.108;2023-04-24T08:28:18;2.27;;;2.17;;
18360;SDS011;9308;48.550;9.108;2023-04-24T08:30:45;2.60;;;2.40;;
18360;SDS011;9308;48.550;9.108;2023-04-24T08:33:12;2.60;;;2.33;;
18360;SDS011;9308;48.550;9.108;2023-04-24T08:35:37;2.33;;;2.23;;
18360;SDS011;9308;48.550;9.108;2023-04-24T08:38:04;2.37;;;2.20;;
18360;SDS011;9308;48.550;9.108;2023-04-24T08:40:29;2.30;;;2.10;;
18360;SDS011;9308;48.550;9.108;2023-04-24T08:42:59;2.30;;;2.20;;
18360;SDS011;9308;48.550;9.108;2023-04-24T08:45:24;2.77;;;2.23;;
18360;SDS011;9308;48.550;9.108;2023-04-24T08:47:51;2.37;;;2.17;;
18360;SDS011;9308;48.550;9.108;2023-04-24T08:50:18;3.00;;;2.07;;
18360;SDS011;9308;48.550;9.108;2023-04-24T08:52:44;2.20;;;2.10;;
18360;SDS011;9308;48.550;9.108;2023-04-24T08:55:09;3.00;;;2.80;;
18360;SDS011;9308;48.550;9.108;2023-04-24T08:57:35;2.53;;;2.33;;
18360;SDS011;9308;48.550;9.108;2023-04-24T09:00:03;2.50;;;2.30;;
18360;SDS011;9308;48.550;9.108;2023-04-24T09:02:29;2.47;;;2.27;;
18360;SDS011;9308;48.550;9.108;2023-04-24T09:04:57;2.00;;;1.80;;
18360;SDS011;9308;48.550;9.108;2023-04-24T09:07:24;2.03;;;1.80;;
18360;SDS011;9308;48.550;9.108;2023-04-24T09:09:51;3.03;;;2.23;;
18360;SDS011;9308;48.550;9.108;2023-04-24T09:12:17;2.00;;;1.90;;
18360;SDS011;9308;48.550;9.108;2023-04-24T09:14:44;2.40;;;1.90;;
18360;SDS011;9308;48.550;9.108;2023-04-24T09:17:10;2.27;;;1.87;;
18360;SDS011;9308;48.550;9.108;2023-04-24T09:19:36;2.50;;;2.30;;
18360;SDS011;9308;48.550;9.108;2023-04-24T09:22:05;2.07;;;1.87;;
18360;SDS011;9308;48.550;9.108;2023-04-24T09:24:31;2.33;;;2.13;;
18360;SDS011;9308;48.550;9.108;2023-04-24T09:26:57;2.03;;;1.80;;
18360;SDS011;9308;48.550;9.108;2023-04-24T09:29:24;2.17;;;1.97;;
18360;SDS011;9308;48.550;9.108;2023-04-24T09:31:49;2.50;;;2.30;;
18360;SDS011;9308;48.550;9.108;2023-04-24T09:34:18;2.20;;;2.00;;
18360;SDS011;9308;48.550;9.108;2023-04-24T09:36:47;2.27;;;2.17;;
18360;SDS011;9308;48.550;9.108;2023-04-24T09:39:14;2.37;;;2.20;;
18360;SDS011;9308;48.550;9.108;2023-04-24T09:44:12;1.77;;;1.67;;
18360;SDS011;9308;48.550;9.108;2023-04-24T09:46:40;2.00;;;1.90;;
18360;SDS011;9308;48.550;9.108;2023-04-24T09:49:10;1.83;;;1.70;;
18360;SDS011;9308;48.550;9.108;2023-04-24T09:51:39;2.27;;;2.07;;
18360;SDS011;9308;48.550;9.108;2023-04-24T09:54:13;2.00;;;1.83;;
18360;SDS011;9308;48.550;9.108;2023-04-24T09:56:44;2.20;;;2.10;;
18360;SDS011;9308;48.550;9.108;2023-04-24T09:59:12;2.50;;;1.83;;
18360;SDS011;9308;48.550;9.108;2023-04-24T10:01:38;2.00;;;1.90;;
18360;SDS011;9308;48.550;9.108;2023-04-24T10:04:14;2.23;;;2.10;;
18360;SDS011;9308;48.550;9.108;2023-04-24T10:06:43;2.90;;;2.33;;
18360;SDS011;9308;48.550;9.108;2023-04-24T10:09:09;2.87;;;2.00;;
18360;SDS011;9308;48.550;9.108;2023-04-24T10:11:37;1.90;;;1.80;;
18360;SDS011;9308;48.550;9.108;2023-04-24T10:14:06;2.03;;;1.93;;
18360;SDS011;9308;48.550;9.108;2023-04-24T10:16:35;3.23;;;1.90;;
18360;SDS011;9308;48.550;9.108;2023-04-24T10:19:02;2.03;;;1.93;;
18360;SDS011;9308;48.550;9.108;2023-04-24T10:21:28;1.77;;;1.67;;
18360;SDS011;9308;48.550;9.108;2023-04-24T10:23:53;1.60;;;1.50;;
18360;SDS011;9308;48.550;9.108;2023-04-24T10:26:19;2.97;;;1.77;;
18360;SDS011;9308;48.550;9.108;2023-04-24T10:28:45;1.57;;;1.47;;
18360;SDS011;9308;48.550;9.108;2023-04-24T10:31:12;1.70;;;1.60;;
18360;SDS011;9308;48.550;9.108;2023-04-24T10:33:39;2.00;;;1.50;;
18360;SDS011;9308;48.550;9.108;2023-04-24T10:36:11;1.50;;;1.40;;
18360;SDS011;9308;48.550;9.108;2023-04-24T10:38:39;1.77;;;1.67;;
18360;SDS011;9308;48.550;9.108;2023-04-24T10:41:10;1.20;;;1.20;;
18360;SDS011;9308;48.550;9.108;2023-04-24T10:43:41;1.80;;;1.70;;
18360;SDS011;9308;48.550;9.108;2023-04-24T10:46:07;1.80;;;1.47;;
18360;SDS011;9308;48.550;9.108;2023-04-24T10:48:35;2.00;;;1.90;;
18360;SDS011;9308;48.550;9.108;2023-04-24T10:51:01;1.97;;;1.50;;
18360;SDS011;9308;48.550;9.108;2023-04-24T10:53:28;2.40;;;2.03;;
18360;SDS011;9308;48.550;9.108;2023-04-24T10:55:58;1.90;;;1.80;;
18360;SDS011;9308;48.550;9.108;2023-04-24T10:58:42;1.90;;;1.70;;
18360;SDS011;9308;48.550;9.108;2023-04-24T11:01:27;1.80;;;1.70;;
18360;SDS011;9308;48.550;9.108;2023-04-24T11:03:55;2.30;;;2.10;;
18360;SDS011;9308;48.550;9.108;2023-04-24T11:06:28;1.63;;;1.53;;
18360;SDS011;9308;48.550;9.108;2023-04-24T11:08:58;3.43;;;1.80;;
18360;SDS011;9308;48.550;9.108;2023-04-24T11:11:29;1.93;;;1.60;;
18360;SDS011;9308;48.550;9.108;2023-04-24T11:18:51;2.20;;;1.70;;
18360;SDS011;9308;48.550;9.108;2023-04-24T11:21:19;1.70;;;1.60;;
18360;SDS011;9308;48.550;9.108;2023-04-24T11:23:47;1.63;;;1.53;;
18360;SDS011;9308;48.550;9.108;2023-04-24T11:26:12;1.60;;;1.57;;
18360;SDS011;9308;48.550;9.108;2023-04-24T11:28:46;1.70;;;1.50;;
18360;SDS011;9308;48.550;9.108;2023-04-24T11:34:10;1.53;;;1.27;;
18360;SDS011;9308;48.550;9.108;2023-04-24T11:36:37;1.60;;;1.50;;
18360;SDS011;9308;48.550;9.108;2023-04-24T11:39:03;2.23;;;1.50;;
18360;SDS011;9308;48.550;9.108;2023-04-24T11:41:29;1.57;;;1.47;;
18360;SDS011;9308;48.550;9.108;2023-04-24T11:43:55;1.50;;;1.40;;
18360;SDS011;9308;48.550;9.108;2023-04-24T11:46:21;1.60;;;1.50;;
18360;SDS011;9308;48.550;9.108;2023-04-24T11:48:47;1.50;;;1.40;;
18360;SDS011;9308;48.550;9.108;2023-04-24T11:51:13;1.80;;;1.60;;
18360;SDS011;9308;48.550;9.108;2023-04-24T11:53:39;2.03;;;1.93;;
18360;SDS011;9308;48.550;9.108;2023-04-24T11:56:05;1.23;;;1.10;;
18360;SDS011;9308;48.550;9.108;2023-04-24T11:58:37;1.90;;;1.80;;
18360;SDS011;9308;48.550;9.108;2023-04-24T12:01:04;2.70;;;1.23;;
18360;SDS011;9308;48.550;9.108;2023-04-24T12:03:30;1.43;;;1.33;;
18360;SDS011;9308;48.550;9.108;2023-04-24T12:06:05;4.47;;;1.67;;
18360;SDS011;9308;48.550;9.108;2023-04-24T12:08:32;2.00;;;1.87;;
18360;SDS011;9308;48.550;9.108;2023-04-24T12:10:59;1.60;;;1.50;;
18360;SDS011;9308;48.550;9.108;2023-04-24T12:13:26;2.10;;;1.90;;
18360;SDS011;9308;48.550;9.108;2023-04-24T12:15:51;3.30;;;1.80;;
18360;SDS011;9308;48.550;9.108;2023-04-24T12:18:17;1.60;;;1.50;;
18360;SDS011;9308;48.550;9.108;2023-04-24T12:20:42;1.40;;;1.40;;
18360;SDS011;9308;48.550;9.108;2023-04-24T12:23:08;1.50;;;1.40;;
18360;SDS011;9308;48.550;9.108;2023-04-24T12:25:33;2.30;;;2.10;;
18360;SDS011;9308;48.550;9.108;2023-04-24T12:30:28;2.00;;;1.90;;
18360;SDS011;9308;48.550;9.108;2023-04-24T12:32:56;2.63;;;1.63;;
18360;SDS011;9308;48.550;9.108;2023-04-24T12:35:24;2.10;;;1.90;;
18360;SDS011;9308;48.550;9.108;2023-04-24T12:37:51;2.67;;;2.03;;
18360;SDS011;9308;48.550;9.108;2023-04-24T12:40:17;2.63;;;2.00;;
18360;SDS011;9308;48.550;9.108;2023-04-24T12:42:47;2.17;;;1.97;;
18360;SDS011;9308;48.550;9.108;2023-04-24T12:45:14;1.87;;;1.77;;
18360;SDS011;9308;48.550;9.108;2023-04-24T12:47:40;2.10;;;1.90;;
18360;SDS011;9308;48.550;9.108;2023-04-24T12:50:10;2.30;;;1.93;;
18360;SDS011;9308;48.550;9.108;2023-04-24T12:52:36;2.90;;;2.00;;
18360;SDS011;9308;48.550;9.108;2023-04-24T12:55:02;2.17;;;1.97;;
18360;SDS011;9308;48.550;9.108;2023-04-24T12:57:30;1.73;;;1.63;;
18360;SDS011;9308;48.550;9.108;2023-04-24T12:59:56;3.03;;;2.20;;
18360;SDS011;9308;48.550;9.108;2023-04-24T13:02:27;3.07;;;1.97;;
18360;SDS011;9308;48.550;9.108;2023-04-24T13:04:54;2.50;;;2.30;;
18360;SDS011;9308;48.550;9.108;2023-04-24T13:07:20;2.10;;;1.77;;
18360;SDS011;9308;48.550;9.108;2023-04-24T13:09:47;1.43;;;1.43;;
18360;SDS011;9308;48.550;9.108;2023-04-24T13:12:13;1.73;;;1.63;;
18360;SDS011;9308;48.550;9.108;2023-04-24T13:14:38;1.80;;;1.70;;
18360;SDS011;9308;48.550;9.108;2023-04-24T13:17:04;2.00;;;1.83;;
18360;SDS011;9308;48.550;9.108;2023-04-24T13:19:30;2.23;;;2.03;;
18360;SDS011;9308;48.550;9.108;2023-04-24T13:22:02;2.47;;;2.10;;
18360;SDS011;9308;48.550;9.108;2023-04-24T13:24:28;2.07;;;1.97;;
18360;SDS011;9308;48.550;9.108;2023-04-24T13:26:53;1.80;;;1.70;;
18360;SDS011;9308;48.550;9.108;2023-04-24T13:29:19;1.83;;;1.73;;
18360;SDS011;9308;48.550;9.108;2023-04-24T13:31:45;2.20;;;2.00;;
18360;SDS011;9308;48.550;9.108;2023-04-24T13:34:12;2.13;;;1.90;;
18360;SDS011;9308;48.550;9.108;2023-04-24T13:36:38;2.27;;;2.17;;
18360;SDS011;9308;48.550;9.108;2023-04-24T13:39:04;2.10;;;2.00;;
18360;SDS011;9308;48.550;9.108;2023-04-24T13:41:30;2.60;;;2.40;;
18360;SDS011;9308;48.550;9.108;2023-04-24T13:43:56;2.27;;;2.17;;
18360;SDS011;9308;48.550;9.108;2023-04-24T13:46:21;2.23;;;2.13;;
18360;SDS011;9308;48.550;9.108;2023-04-24T13:48:47;1.93;;;1.83;;
18360;SDS011;9308;48.550;9.108;2023-04-24T13:51:12;2.10;;;2.00;;
18360;SDS011;9308;48.550;9.108;2023-04-24T13:53:38;2.20;;;2.00;;
18360;SDS011;9308;48.550;9.108;2023-04-24T13:56:04;3.80;;;2.20;;
18360;SDS011;9308;48.550;9.108;2023-04-24T13:58:30;2.37;;;2.27;;
18360;SDS011;9308;48.550;9.108;2023-04-24T14:00:57;2.43;;;2.23;;
18360;SDS011;9308;48.550;9.108;2023-04-24T14:03:22;1.70;;;1.60;;
18360;SDS011;9308;48.550;9.108;2023-04-24T14:05:48;1.97;;;1.87;;
18360;SDS011;9308;48.550;9.108;2023-04-24T14:08:13;2.20;;;2.10;;
18360;SDS011;9308;48.550;9.108;2023-04-24T14:10:38;2.73;;;2.27;;
18360;SDS011;9308;48.550;9.108;2023-04-24T14:13:04;2.23;;;2.13;;
18360;SDS011;9308;48.550;9.108;2023-04-24T14:15:30;2.00;;;1.80;;
18360;SDS011;9308;48.550;9.108;2023-04-24T14:17:56;2.33;;;2.20;;
18360;SDS011;9308;48.550;9.108;2023-04-24T14:20:22;2.63;;;2.43;;
18360;SDS011;9308;48.550;9.108;2023-04-24T14:22:47;2.90;;;2.23;;
18360;SDS011;9308;48.550;9.108;2023-04-24T14:25:13;3.43;;;2.00;;
18360;SDS011;9308;48.550;9.108;2023-04-24T14:27:38;2.40;;;2.20;;
18360;SDS011;9308;48.550;9.108;2023-04-24T14:30:05;2.17;;;1.97;;
18360;SDS011;9308;48.550;9.108;2023-04-24T14:32:31;2.50;;;2.30;;
18360;SDS011;9308;48.550;9.108;2023-04-24T14:34:57;2.20;;;2.10;;
18360;SDS011;9308;48.550;9.108;2023-04-24T14:37:22;2.13;;;2.03;;
18360;SDS011;9308;48.550;9.108;2023-04-24T14:39:47;2.10;;;2.00;;
18360;SDS011;9308;48.550;9.108;2023-04-24T14:42:13;2.73;;;2.53;;
18360;SDS011;9308;48.550;9.108;2023-04-24T14:44:38;2.40;;;2.30;;
18360;SDS011;9308;48.550;9.108;2023-04-24T14:47:04;2.03;;;1.93;;
18360;SDS011;9308;48.550;9.108;2023-04-24T14:49:30;1.87;;;1.77;;
18360;SDS011;9308;48.550;9.108;2023-04-24T14:51:56;2.63;;;2.30;;
18360;SDS011;9308;48.550;9.108;2023-04-24T14:54:21;2.20;;;2.00;;
18360;SDS011;9308;48.550;9.108;2023-04-24T14:56:48;2.00;;;1.90;;
18360;SDS011;9308;48.550;9.108;2023-04-24T14:59:14;2.90;;;1.97;;
18360;SDS011;9308;48.550;9.108;2023-04-24T15:01:40;2.57;;;2.30;;
18360;SDS011;9308;48.550;9.108;2023-04-24T15:04:05;2.20;;;2.10;;
18360;SDS011;9308;48.550;9.108;2023-04-24T15:06:31;2.60;;;2.03;;
18360;SDS011;9308;48.550;9.108;2023-04-24T15:08:57;4.10;;;2.50;;